createdAt,value
2023-02-23T00:00:00.921Z,98022.81
2023-02-23T00:03:03.003Z,98021.97
2023-02-23T00:06:04.868Z,98018.66
2023-02-23T00:09:14.854Z,98019.78
2023-02-23T00:12:17.176Z,98027.91
2023-02-23T00:15:19.081Z,98028.00
2023-02-23T00:18:21.040Z,98029.88
2023-02-23T00:21:23.800Z,98029.88
2023-02-23T00:24:27.144Z,98025.41
2023-02-23T00:27:28.640Z,98020.88
2023-02-23T00:30:32.235Z,98019.94
2023-02-23T00:33:34.761Z,98024.41
2023-02-23T00:36:36.698Z,98026.13
2023-02-23T00:39:39.936Z,98021.59
2023-02-23T00:42:41.642Z,98025.06
2023-02-23T00:45:43.461Z,98023.13
2023-02-23T00:48:46.177Z,98023.03
2023-02-23T00:51:48.111Z,98029.22
2023-02-23T00:54:51.503Z,98031.81
2023-02-23T00:57:53.062Z,98035.25
2023-02-23T01:00:54.856Z,98037.91
2023-02-23T01:03:56.841Z,98046.81
2023-02-23T01:06:58.954Z,98048.69
2023-02-23T01:10:07.847Z,98048.69
2023-02-23T01:13:11.005Z,98051.50
2023-02-23T01:16:13.649Z,98048.06
2023-02-23T01:19:18.173Z,98048.91
2023-02-23T01:22:19.725Z,98049.69
2023-02-23T01:25:24.685Z,98042.78
2023-02-23T01:28:26.599Z,98041.91
2023-02-23T01:31:29.518Z,98043.78
2023-02-23T01:34:31.188Z,98031.44
2023-02-23T01:37:35.381Z,98042.13
2023-02-23T01:40:42.897Z,98037.84
2023-02-23T01:43:59.349Z,98044.09
2023-02-23T01:47:01.184Z,98047.69
2023-02-23T01:50:02.908Z,98042.38
2023-02-23T01:53:05.439Z,98040.59
2023-02-23T01:56:12.496Z,98032.72
2023-02-23T01:59:15.343Z,98034.59
2023-02-23T02:02:17.187Z,98033.72
2023-02-23T02:05:18.844Z,98032.00
2023-02-23T02:08:25.089Z,98032.06
2023-02-23T02:11:30.950Z,98039.31
2023-02-23T02:14:32.515Z,98032.25
2023-02-23T02:17:38.364Z,98034.13
2023-02-23T02:20:53.966Z,98031.47
2023-02-23T02:24:10.422Z,98030.69
2023-02-23T02:27:20.995Z,98033.28
2023-02-23T02:30:39.658Z,98036.78
2023-02-23T02:33:55.595Z,98033.28
2023-02-23T02:37:14.994Z,98034.88
2023-02-23T02:40:22.508Z,98033.88
2023-02-23T02:43:31.176Z,98034.72
2023-02-23T02:46:35.332Z,98047.16
2023-02-23T02:49:43.162Z,98035.59
2023-02-23T02:52:50.013Z,98045.50
2023-02-23T02:55:56.104Z,98034.00
2023-02-23T02:58:59.878Z,98032.34
2023-02-23T03:02:20.881Z,98028.69
2023-02-23T03:05:43.856Z,98030.47
2023-02-23T03:09:09.200Z,98019.19
2023-02-23T03:12:38.155Z,98026.31
2023-02-23T03:16:03.812Z,98019.19
2023-02-23T03:19:29.848Z,98024.50
2023-02-23T03:22:53.843Z,98027.16
2023-02-23T03:26:19.303Z,98021.94
2023-02-23T03:29:45.890Z,98022.94
2023-02-23T03:33:08.195Z,98015.94
2023-02-23T03:36:33.279Z,98013.50
2023-02-23T03:39:59.611Z,98012.03
2023-02-23T03:43:21.186Z,98013.19
2023-02-23T03:46:44.145Z,98025.59
2023-02-23T03:50:06.901Z,98013.38
2023-02-23T03:53:30.402Z,98011.66
2023-02-23T03:56:52.120Z,98008.22
2023-02-23T04:00:13.755Z,98007.34
2023-02-23T04:03:36.804Z,98005.63
2023-02-23T04:06:59.028Z,98013.59
2023-02-23T04:10:19.848Z,98016.25
2023-02-23T04:13:24.153Z,98016.31
2023-02-23T04:16:25.736Z,98013.66
2023-02-23T04:19:29.369Z,98012.81
2023-02-23T04:22:32.086Z,98017.25
2023-02-23T04:25:33.830Z,98011.06
2023-02-23T04:28:35.413Z,98012.00
2023-02-23T04:31:37.320Z,98012.00
2023-02-23T04:34:40.747Z,98016.50
2023-02-23T04:37:42.419Z,98014.78
2023-02-23T04:40:44.630Z,98013.91
2023-02-23T04:43:46.369Z,98016.50
2023-02-23T04:46:47.839Z,98027.19
2023-02-23T04:49:51.049Z,98021.81
2023-02-23T04:52:53.249Z,98026.25
2023-02-23T04:55:55.036Z,98025.38
2023-02-23T04:58:56.592Z,98020.09
2023-02-23T05:01:58.167Z,98023.66
2023-02-23T05:05:01.121Z,98017.50
2023-02-23T05:08:03.133Z,98025.47
2023-02-23T05:11:05.865Z,98026.47
2023-02-23T05:14:07.585Z,98035.28
2023-02-23T05:17:09.230Z,98032.56
2023-02-23T05:20:13.440Z,98031.78
2023-02-23T05:23:15.033Z,98031.69
2023-02-23T05:26:17.076Z,98032.41
2023-02-23T05:29:19.270Z,98034.44
2023-02-23T05:32:21.008Z,98039.88
2023-02-23T05:35:26.495Z,98034.69
2023-02-23T05:38:28.093Z,98040.13
2023-02-23T05:41:29.793Z,98037.47
2023-02-23T05:44:31.350Z,98025.91
2023-02-23T05:47:35.513Z,98033.88
2023-02-23T05:50:38.745Z,98020.75
2023-02-23T05:53:40.899Z,98032.31
2023-02-23T05:56:43.193Z,98032.31
2023-02-23T05:59:45.097Z,98024.41
2023-02-23T06:02:46.720Z,98028.72
2023-02-23T06:05:54.186Z,98025.28
2023-02-23T06:08:55.773Z,98028.84
2023-02-23T06:11:59.658Z,98030.56
2023-02-23T06:15:01.787Z,98028.78
2023-02-23T06:18:03.397Z,98034.09
2023-02-23T06:21:06.528Z,98026.19
2023-02-23T06:24:08.126Z,98033.22
2023-02-23T06:27:09.819Z,98035.97
2023-02-23T06:30:12.157Z,98039.47
2023-02-23T06:33:13.847Z,98031.63
2023-02-23T06:36:16.958Z,98043.84
2023-02-23T06:39:19.180Z,98045.56
2023-02-23T06:42:20.858Z,98055.41
2023-02-23T06:45:22.948Z,98051.06
2023-02-23T06:48:24.562Z,98058.22
2023-02-23T06:51:27.490Z,98062.66
2023-02-23T06:54:29.239Z,98069.69
2023-02-23T06:57:30.989Z,98070.50
2023-02-23T07:00:32.787Z,98073.13
2023-02-23T07:03:35.197Z,98068.69
2023-02-23T07:06:38.273Z,98075.78
2023-02-23T07:09:40.023Z,98077.59
2023-02-23T07:12:41.571Z,98081.09
2023-02-23T07:15:43.490Z,98081.97
2023-02-23T07:18:45.050Z,98081.06
2023-02-23T07:21:47.957Z,98084.59
2023-02-23T07:24:49.655Z,98093.28
2023-02-23T07:27:51.881Z,98091.47
2023-02-23T07:30:55.572Z,98093.19
2023-02-23T07:33:57.222Z,98092.28
2023-02-23T07:37:00.175Z,98098.50
2023-02-23T07:40:01.964Z,98096.66
2023-02-23T07:43:03.747Z,98094.78
2023-02-23T07:46:05.779Z,98098.25
2023-02-23T07:49:08.124Z,98100.09
2023-02-23T07:52:11.232Z,98103.69
2023-02-23T07:55:12.825Z,98101.88
2023-02-23T07:58:14.405Z,98103.56
2023-02-23T08:01:16.336Z,98107.88
2023-02-23T08:04:18.698Z,98101.72
2023-02-23T08:07:22.332Z,98110.59
2023-02-23T08:10:24.431Z,98108.97
2023-02-23T08:13:26.097Z,98121.31
2023-02-23T08:16:28.187Z,98118.56
2023-02-23T08:19:30.484Z,98120.16
2023-02-23T08:22:47.163Z,98120.84
2023-02-23T08:25:50.711Z,98119.84
2023-02-23T08:28:52.974Z,98115.41
2023-02-23T08:31:56.297Z,98116.25
2023-02-23T08:35:01.184Z,98120.56
2023-02-23T08:38:04.233Z,98122.22
2023-02-23T08:41:06.520Z,98128.41
2023-02-23T08:44:08.134Z,98128.34
2023-02-23T08:47:09.752Z,98124.69
2023-02-23T08:50:12.053Z,98126.34
2023-02-23T08:53:15.310Z,98134.25
2023-02-23T08:59:39.214Z,98130.41
2023-02-23T09:02:41.245Z,98129.41
2023-02-23T09:05:44.333Z,98132.94
2023-02-23T09:08:47.836Z,98130.28
2023-02-23T09:11:49.456Z,98133.72
2023-02-23T09:14:53.881Z,98133.63
2023-02-23T09:17:59.422Z,98138.97
2023-02-23T09:21:07.000Z,98141.53
2023-02-23T09:24:10.209Z,98133.47
2023-02-23T09:27:14.904Z,98147.47
2023-02-23T09:30:20.452Z,98144.56
2023-02-23T09:33:22.112Z,98139.38
2023-02-23T09:36:24.777Z,98142.84
2023-02-23T09:39:37.649Z,98147.94
2023-02-23T09:42:43.377Z,98143.50
2023-02-23T09:45:48.070Z,98147.78
2023-02-23T09:48:49.856Z,98153.97
2023-02-23T09:51:55.537Z,98155.00
2023-02-23T09:54:59.023Z,98149.81
2023-02-23T09:58:04.992Z,98155.06
2023-02-23T10:01:22.235Z,98153.47
2023-02-23T10:04:26.958Z,98153.34
2023-02-23T10:07:35.107Z,98159.28
2023-02-23T10:10:42.838Z,98157.50
2023-02-23T10:13:51.144Z,98160.22
2023-02-23T10:17:00.976Z,98161.91
2023-02-23T10:20:06.994Z,98160.84
2023-02-23T10:23:11.968Z,98159.13
2023-02-23T10:26:17.428Z,98159.03
2023-02-23T10:29:21.889Z,98166.81
2023-02-23T10:32:25.952Z,98165.22
2023-02-23T10:35:29.326Z,98172.25
2023-02-23T10:38:31.291Z,98167.03
2023-02-23T10:41:34.766Z,98162.72
2023-02-23T10:44:37.042Z,98168.88
2023-02-23T10:47:38.829Z,98169.03
2023-02-23T10:50:41.109Z,98174.66
2023-02-23T10:53:43.517Z,98171.88
2023-02-23T10:56:47.125Z,98178.66
2023-02-23T11:00:04.459Z,98166.41
2023-02-23T11:03:19.205Z,98166.41
2023-02-23T11:06:28.948Z,98163.75
2023-02-23T11:09:44.527Z,98164.59
2023-02-23T11:12:49.913Z,98162.97
2023-02-23T11:16:01.804Z,98164.97
2023-02-23T11:19:04.837Z,98164.34
2023-02-23T11:22:10.197Z,98161.84
2023-02-23T11:25:15.913Z,98159.19
2023-02-23T11:28:22.249Z,98158.47
2023-02-23T11:31:30.868Z,98157.56
2023-02-23T11:34:35.318Z,98151.13
2023-02-23T11:37:39.773Z,98151.94
2023-02-23T11:40:42.004Z,98154.59
2023-02-23T11:43:47.839Z,98147.41
2023-02-23T11:46:50.740Z,98148.34
2023-02-23T11:49:53.621Z,98153.66
2023-02-23T11:52:57.949Z,98143.91
2023-02-23T11:56:08.335Z,98149.22
2023-02-23T11:59:16.166Z,98145.03
2023-02-23T12:02:23.283Z,98141.59
2023-02-23T12:05:25.901Z,98141.31
2023-02-23T12:08:34.213Z,98137.78
2023-02-23T12:11:41.939Z,98140.75
2023-02-23T12:14:49.824Z,98135.88
2023-02-23T12:17:53.516Z,98134.94
2023-02-23T12:20:56.629Z,98135.88
2023-02-23T12:24:03.726Z,98128.94
2023-02-23T12:27:12.802Z,98128.94
2023-02-23T12:30:19.055Z,98130.56
2023-02-23T12:33:28.449Z,98140.31
2023-02-23T12:36:35.375Z,98133.31
2023-02-23T12:39:40.083Z,98128.94
2023-02-23T12:42:45.441Z,98128.88
2023-02-23T12:45:52.707Z,98127.22
2023-02-23T12:49:00.653Z,98125.34
2023-02-23T12:52:08.682Z,98122.06
2023-02-23T12:55:11.928Z,98122.06
2023-02-23T12:58:21.279Z,98120.91
2023-02-23T13:01:27.994Z,98121.91
2023-02-23T13:04:42.991Z,98129.22
2023-02-23T13:07:52.792Z,98130.09
2023-02-23T13:11:01.534Z,98129.09
2023-02-23T13:14:09.313Z,98128.22
2023-02-23T13:17:20.886Z,98139.56
2023-02-23T13:20:26.608Z,98132.66
2023-02-23T13:23:32.353Z,98129.88
2023-02-23T13:26:36.357Z,98136.25
2023-02-23T13:29:39.829Z,98134.53
2023-02-23T13:32:42.952Z,98131.19
2023-02-23T13:35:44.723Z,98133.78
2023-02-23T13:38:53.655Z,98134.56
2023-02-23T13:42:03.874Z,98132.06
2023-02-23T13:45:29.490Z,98133.06
2023-02-23T13:48:50.488Z,98143.81
2023-02-23T13:51:59.786Z,98130.41
2023-02-23T13:55:05.529Z,98133.97
2023-02-23T13:58:11.909Z,98138.59
2023-02-23T14:01:16.419Z,98138.59
2023-02-23T14:04:22.790Z,98136.22
2023-02-23T14:07:27.323Z,98133.44
2023-02-23T14:10:30.186Z,98139.59
2023-02-23T14:13:32.912Z,98133.44
2023-02-23T14:16:34.834Z,98141.31
2023-02-23T14:23:01.322Z,98138.22
2023-02-23T14:26:11.784Z,98137.44
2023-02-23T14:29:32.071Z,98146.69
2023-02-23T14:32:38.644Z,98149.50
2023-02-23T14:35:47.999Z,98141.53
2023-02-23T14:38:50.971Z,98145.03
2023-02-23T14:41:54.642Z,98144.03
2023-02-23T14:44:58.269Z,98143.25
2023-02-23T14:48:03.211Z,98153.72
2023-02-23T14:51:17.170Z,98149.56
2023-02-23T14:54:26.914Z,98151.44
2023-02-23T14:57:28.505Z,98156.88
2023-02-23T15:00:32.611Z,98146.47
2023-02-23T15:03:35.001Z,98149.84
2023-02-23T15:06:38.684Z,98144.78
2023-02-23T15:09:42.668Z,98144.78
2023-02-23T15:12:46.433Z,98140.31
2023-02-23T15:15:49.811Z,98143.75
2023-02-23T15:19:28.974Z,98144.69
2023-02-23T15:22:33.343Z,98148.31
2023-02-23T15:25:37.176Z,98149.13
2023-02-23T15:28:40.081Z,98152.75
2023-02-23T15:31:50.168Z,98149.06
2023-02-23T15:34:53.192Z,98151.72
2023-02-23T15:38:11.123Z,98147.34
2023-02-23T15:41:21.358Z,98152.00
2023-02-23T15:44:27.519Z,98153.94
2023-02-23T15:47:33.994Z,98155.16
2023-02-23T15:50:40.652Z,98162.19
2023-02-23T15:53:43.889Z,98158.13
2023-02-23T15:56:49.888Z,98157.31
2023-02-23T15:59:54.650Z,98151.88
2023-02-23T16:02:57.394Z,98152.13
2023-02-23T16:06:00.607Z,98145.97
2023-02-23T16:09:20.903Z,98154.22
2023-02-23T16:12:24.254Z,98154.34
2023-02-23T16:15:27.192Z,98150.31
2023-02-23T16:18:34.970Z,98147.78
2023-02-23T16:21:37.460Z,98152.16
2023-02-23T16:24:58.476Z,98149.75
2023-02-23T16:28:09.263Z,98158.69
2023-02-23T16:31:20.632Z,98151.81
2023-02-23T16:34:26.001Z,98146.50
2023-02-23T16:37:28.338Z,98151.00
2023-02-23T16:40:31.420Z,98153.06
2023-02-23T16:43:41.080Z,98145.19
2023-02-23T16:46:57.289Z,98147.91
2023-02-23T16:50:04.858Z,98152.47
2023-02-23T16:53:33.275Z,98149.75
2023-02-23T16:56:41.147Z,98151.53
2023-02-23T16:59:44.283Z,98151.41
2023-02-23T17:02:46.156Z,98154.91
2023-02-23T17:05:47.909Z,98155.03
2023-02-23T17:08:57.593Z,98156.78
2023-02-23T17:11:59.945Z,98155.03
2023-02-23T17:15:04.370Z,98160.34
2023-02-23T17:18:05.957Z,98162.28
2023-02-23T17:21:08.735Z,98171.16
2023-02-23T17:24:10.380Z,98171.13
2023-02-23T17:27:12.345Z,98172.94
2023-02-23T17:30:16.062Z,98172.88
2023-02-23T17:33:18.202Z,98176.69
2023-02-23T17:36:20.063Z,98175.13
2023-02-23T17:39:21.806Z,98179.56
2023-02-23T17:42:35.029Z,98178.63
2023-02-23T17:45:38.307Z,98182.16
2023-02-23T17:48:40.909Z,98185.50
2023-02-23T17:51:42.835Z,98191.94
2023-02-23T17:54:44.533Z,98194.72
2023-02-23T17:57:46.226Z,98197.50
2023-02-23T18:00:49.613Z,98192.28
2023-02-23T18:03:51.372Z,98198.50
2023-02-23T18:06:52.948Z,98194.06
2023-02-23T18:09:54.560Z,98192.28
2023-02-23T18:12:56.694Z,98190.69
2023-02-23T18:16:00.864Z,98192.56
2023-02-23T18:19:02.636Z,98196.16
2023-02-23T18:22:04.364Z,98203.38
2023-02-23T18:28:26.667Z,98197.22
2023-02-23T18:31:29.699Z,98191.06
2023-02-23T18:34:31.643Z,98196.97
2023-02-23T18:37:33.164Z,98191.66
2023-02-23T18:40:35.328Z,98197.81
2023-02-23T18:43:36.936Z,98202.38
2023-02-23T18:46:40.260Z,98198.88
2023-02-23T18:49:42.722Z,98201.53
2023-02-23T18:52:46.396Z,98200.00
2023-02-23T18:55:48.293Z,98186.19
2023-02-23T18:58:52.177Z,98191.53
2023-02-23T19:06:43.232Z,98193.16
2023-02-23T19:09:47.124Z,98202.94
2023-02-23T19:12:48.943Z,98205.69
2023-02-23T19:15:53.400Z,98200.47
2023-02-23T19:18:55.492Z,98198.88
2023-02-23T19:21:58.847Z,98197.28
2023-02-23T19:25:00.360Z,98199.00
2023-02-23T19:28:02.466Z,98200.78
2023-02-23T19:31:04.859Z,98196.34
2023-02-23T19:34:08.893Z,98192.81
2023-02-23T19:37:12.279Z,98193.56
2023-02-23T19:40:16.701Z,98190.38
2023-02-23T19:46:31.954Z,98188.63
2023-02-23T19:49:33.485Z,98200.09
2023-02-23T19:52:38.967Z,98196.69
2023-02-23T19:55:45.145Z,98200.91
2023-02-23T19:58:48.298Z,98199.16
2023-02-23T20:01:51.503Z,98199.88
2023-02-23T20:04:54.308Z,98197.19
2023-02-23T20:07:57.571Z,98191.91
2023-02-23T20:10:59.932Z,98199.78
2023-02-23T20:14:03.411Z,98204.97
2023-02-23T20:17:05.808Z,98199.72
2023-02-23T20:20:10.395Z,98206.81
2023-02-23T20:23:13.659Z,98205.38
2023-02-23T20:26:16.579Z,98209.25
2023-02-23T20:29:19.222Z,98217.19
2023-02-23T20:32:21.052Z,98211.28
2023-02-23T20:35:26.284Z,98203.13
2023-02-23T20:38:29.369Z,98208.19
2023-02-23T20:41:31.627Z,98206.88
2023-02-23T20:44:33.543Z,98213.31
2023-02-23T20:47:36.199Z,98211.84
2023-02-23T20:50:38.282Z,98221.72
2023-02-23T20:53:42.278Z,98225.41
2023-02-23T20:56:46.707Z,98227.25
2023-02-23T20:59:49.679Z,98224.72
2023-02-23T21:02:55.639Z,98228.19
2023-02-23T21:05:58.164Z,98228.50
2023-02-23T21:09:04.596Z,98224.97
2023-02-23T21:12:07.486Z,98220.69
2023-02-23T21:15:09.737Z,98221.50
2023-02-23T21:18:11.778Z,98225.97
2023-02-23T21:21:15.659Z,98219.00
2023-02-23T21:24:19.114Z,98218.19
2023-02-23T21:27:21.914Z,98206.84
2023-02-23T21:30:24.359Z,98208.69
2023-02-23T21:33:26.025Z,98204.28
2023-02-23T21:36:27.744Z,98207.81
2023-02-23T21:39:31.521Z,98198.34
2023-02-23T21:42:33.085Z,98204.50
2023-02-23T21:45:35.344Z,98213.34
2023-02-23T21:48:37.056Z,98212.44
2023-02-23T21:51:39.043Z,98213.47
2023-02-23T21:54:46.612Z,98209.06
2023-02-23T21:57:48.336Z,98218.81
2023-02-23T22:00:50.343Z,98210.03
2023-02-23T22:03:54.728Z,98214.38
2023-02-23T22:06:56.536Z,98202.13
2023-02-23T22:09:59.725Z,98198.66
2023-02-23T22:13:01.343Z,98191.63
2023-02-23T22:16:03.693Z,98198.56
2023-02-23T22:19:06.361Z,98196.88
2023-02-23T22:22:08.191Z,98204.88
2023-02-23T22:25:11.564Z,98202.25
2023-02-23T22:28:13.292Z,98194.25
2023-02-23T22:31:15.511Z,98194.25
2023-02-23T22:34:18.369Z,98193.34
2023-02-23T22:37:21.975Z,98199.47
2023-02-23T22:40:25.381Z,98189.75
2023-02-23T22:43:27.268Z,98185.22
2023-02-23T22:46:29.022Z,98185.22
2023-02-23T22:49:30.618Z,98177.38
2023-02-23T22:52:32.597Z,98179.88
2023-02-23T22:58:49.958Z,98168.69
2023-02-23T23:01:56.455Z,98169.66
2023-02-23T23:04:58.441Z,98159.09
2023-02-23T23:08:00.205Z,98159.31
2023-02-23T23:11:04.059Z,98162.91
2023-02-23T23:14:10.262Z,98163.84
2023-02-23T23:17:14.055Z,98149.75
2023-02-23T23:20:18.329Z,98141.69
2023-02-23T23:23:19.927Z,98142.38
2023-02-23T23:26:23.422Z,98145.03
2023-02-23T23:29:29.728Z,98144.28
2023-02-23T23:32:33.620Z,98144.19
2023-02-23T23:35:35.188Z,98140.84
2023-02-23T23:38:38.665Z,98129.53
2023-02-23T23:41:40.510Z,98135.59
2023-02-23T23:44:43.482Z,98135.44
2023-02-23T23:47:45.912Z,98134.81
2023-02-23T23:50:47.760Z,98138.44
2023-02-23T23:53:51.765Z,98132.25
2023-02-23T23:56:53.715Z,98134.72
2023-02-23T23:59:56.629Z,98133.22
